LHM weather

Lincoln Regional Karl Harder Field
Lincoln, California, United States

Public forecast

Using degrees Fahrenheit for public forecast. Weather courtesy of forecast.io.

METAR (pilot weather report)

Retrieved 2019/08/19 14:35 UTC (0 seconds ago):

KLHM 191435Z AUTO 16008KT 10SM CLR 16/12 A2992 RMK AO1

TAF (pilot weather forecast)

Closest forecast is Beale Air Force Base, 14.2 nm (26.3 km) NNW. Retrieved 2019/08/19 11:27 UTC (3 hours ago):

TAF KBAB 191115Z 1911/2017 18009KT 9999 SKC QNH2984INS TX32/1923Z TN12/1913Z